Manistee, Michigan
Current Conditions -  °F | °C
As of 8:15 AM on Thursday 23 Oct 2014 (Local Time) from KMBL Reporting Station
Few Clouds Few Clouds  
Wind Chill: 22°   Ceiling: Unl
Heat Index: 28°   Visibility: 3mi
Dew Point: 25°   Wind: 6mph
Humidity: 86%   Direction: 80°E
Pressure: 30.22"   Gusts: NA
Location:  44.24°N, 86.32°W
Report Text: KMBL 231215Z AUTO 08005KT 3SM FEW018 M02/M04 A3022 RMK AO1
Loading
Personal Weather Stations






























Interactive Weather Map
Tropical Storm Tracking
New forecast layout! Learn more

10-Day Weather Forecast

Advertisements
Track Severe Weather on mobile